sensor_id;sensor_type;location;lat;lon;timestamp;pressure;altitude;pressure_sealevel;temperature;humidity
74435;BME280;62867;52.038;29.256;2022-10-22T00:04:13;1028.1;;;6.4;63.4
74435;BME280;62867;52.038;29.256;2022-10-22T00:09:09;1028;;;6.3;63.7
74435;BME280;62867;52.038;29.256;2022-10-22T00:14:05;1027.9;;;6.2;64.2
74435;BME280;62867;52.038;29.256;2022-10-22T00:19:03;1027.8;;;6.2;63.9
74435;BME280;62867;52.038;29.256;2022-10-22T00:24:23;1027.7;;;6.1;63.7
74435;BME280;62867;52.038;29.256;2022-10-22T00:29:19;1027.6;;;6.1;63.7
74435;BME280;62867;52.038;29.256;2022-10-22T00:34:13;1027.6;;;6.1;64
74435;BME280;62867;52.038;29.256;2022-10-22T00:39:09;1027.5;;;6;64.2
74435;BME280;62867;52.038;29.256;2022-10-22T00:45:28;1027.4;;;6;64.4
74435;BME280;62867;52.038;29.256;2022-10-22T00:49:23;1027.4;;;6;64.5
74435;BME280;62867;52.038;29.256;2022-10-22T00:54:07;1027.3;;;6;64.5
74435;BME280;62867;52.038;29.256;2022-10-22T00:58:50;1027.2;;;5.9;64.3
74435;BME280;62867;52.038;29.256;2022-10-22T01:03:59;1027.1;;;5.8;64.5
74435;BME280;62867;52.038;29.256;2022-10-22T01:08:45;1027.1;;;5.7;64.6
74435;BME280;62867;52.038;29.256;2022-10-22T01:13:52;1027.1;;;5.7;65.1
74435;BME280;62867;52.038;29.256;2022-10-22T01:19:09;1027.1;;;5.7;65.6
74435;BME280;62867;52.038;29.256;2022-10-22T01:24:38;1027;;;5.6;65.3
74435;BME280;62867;52.038;29.256;2022-10-22T01:29:20;1026.9;;;5.6;64.7
74435;BME280;62867;52.038;29.256;2022-10-22T01:34:11;1026.8;;;5.6;65.4
74435;BME280;62867;52.038;29.256;2022-10-22T01:39:23;1026.7;;;5.5;65.6
74435;BME280;62867;52.038;29.256;2022-10-22T01:44:22;1026.6;;;5.4;65.7
74435;BME280;62867;52.038;29.256;2022-10-22T01:49:10;1026.5;;;5.4;65.7
74435;BME280;62867;52.038;29.256;2022-10-22T01:54:06;1026.5;;;5.3;65.6
74435;BME280;62867;52.038;29.256;2022-10-22T01:58:47;1026.4;;;5.3;65.9
74435;BME280;62867;52.038;29.256;2022-10-22T02:04:25;1026.4;;;5.3;66.5
74435;BME280;62867;52.038;29.256;2022-10-22T02:09:13;1026.3;;;5.3;66.6
74435;BME280;62867;52.038;29.256;2022-10-22T02:14:17;1026.2;;;5.2;66.4
74435;BME280;62867;52.038;29.256;2022-10-22T02:19:06;1026.1;;;5.3;66.8
74435;BME280;62867;52.038;29.256;2022-10-22T02:24:19;1026;;;5.3;66.8
74435;BME280;62867;52.038;29.256;2022-10-22T02:29:09;1026;;;5.3;66.7
74435;BME280;62867;52.038;29.256;2022-10-22T02:34:08;1026;;;5.3;66.8
74435;BME280;62867;52.038;29.256;2022-10-22T02:39:11;1025.9;;;5.3;66.8
74435;BME280;62867;52.038;29.256;2022-10-22T02:43:49;1026;;;5.3;66.7
74435;BME280;62867;52.038;29.256;2022-10-22T02:48:45;1026;;;5.2;66.8
74435;BME280;62867;52.038;29.256;2022-10-22T02:54:29;1026.1;;;5.2;66.8
74435;BME280;62867;52.038;29.256;2022-10-22T02:59:19;1026.1;;;5.1;66.5
74435;BME280;62867;52.038;29.256;2022-10-22T03:03:45;1026;;;5;67
74435;BME280;62867;52.038;29.256;2022-10-22T03:09:11;1025.9;;;4.9;66.7
74435;BME280;62867;52.038;29.256;2022-10-22T03:14:25;1025.8;;;4.8;67.5
74435;BME280;62867;52.038;29.256;2022-10-22T03:19:27;1025.6;;;4.8;67.3
74435;BME280;62867;52.038;29.256;2022-10-22T03:24:07;1025.6;;;4.8;67.2
74435;BME280;62867;52.038;29.256;2022-10-22T03:28:45;1025.5;;;4.9;67.7
74435;BME280;62867;52.038;29.256;2022-10-22T03:33:59;1025.4;;;5;67.6
74435;BME280;62867;52.038;29.256;2022-10-22T03:39:11;1025.4;;;5;67.4
74435;BME280;62867;52.038;29.256;2022-10-22T03:44:05;1025.4;;;5;67.5
74435;BME280;62867;52.038;29.256;2022-10-22T03:48:45;1025.4;;;5;67.7
74435;BME280;62867;52.038;29.256;2022-10-22T03:54:21;1025.5;;;5.1;68.1
74435;BME280;62867;52.038;29.256;2022-10-22T03:58:47;1025.4;;;5.1;67.1
74435;BME280;62867;52.038;29.256;2022-10-22T04:03:45;1025.3;;;5.1;67.5
74435;BME280;62867;52.038;29.256;2022-10-22T04:09:29;1025.3;;;5.2;67.1
74435;BME280;62867;52.038;29.256;2022-10-22T04:14:21;1025.2;;;5.2;66.9
74435;BME280;62867;52.038;29.256;2022-10-22T04:18:59;1025.2;;;5.3;67
74435;BME280;62867;52.038;29.256;2022-10-22T04:23:45;1025.1;;;5.4;66.8
74435;BME280;62867;52.038;29.256;2022-10-22T04:28:59;1025;;;5.4;66.5
74435;BME280;62867;52.038;29.256;2022-10-22T04:34:29;1025.1;;;5.4;66.6
74435;BME280;62867;52.038;29.256;2022-10-22T04:39:13;1025.1;;;5.4;66.6
74435;BME280;62867;52.038;29.256;2022-10-22T04:44:25;1025;;;5.4;66.4
74435;BME280;62867;52.038;29.256;2022-10-22T04:49:19;1024.9;;;5.4;66.7
74435;BME280;62867;52.038;29.256;2022-10-22T04:54:19;1024.9;;;5.5;66.6
74435;BME280;62867;52.038;29.256;2022-10-22T04:59:07;1024.9;;;5.5;66.7
74435;BME280;62867;52.038;29.256;2022-10-22T05:04:27;1025;;;5.5;66.7
74435;BME280;62867;52.038;29.256;2022-10-22T05:09:00;1025;;;5.5;66.5
74435;BME280;62867;52.038;29.256;2022-10-22T05:14:09;1025;;;5.6;66.6
74435;BME280;62867;52.038;29.256;2022-10-22T05:19:07;1025;;;5.7;66.3
74435;BME280;62867;52.038;29.256;2022-10-22T05:24:27;1025;;;5.7;66.2
74435;BME280;62867;52.038;29.256;2022-10-22T05:29:27;1025;;;5.7;65.8
74435;BME280;62867;52.038;29.256;2022-10-22T05:34:09;1025;;;5.7;66.2
74435;BME280;62867;52.038;29.256;2022-10-22T05:39:13;1025.1;;;5.8;66.1
74435;BME280;62867;52.038;29.256;2022-10-22T05:44:27;1025;;;5.9;66
74435;BME280;62867;52.038;29.256;2022-10-22T05:49:29;1025;;;5.9;65.5
74435;BME280;62867;52.038;29.256;2022-10-22T05:53:45;1024.9;;;6;65.7
74435;BME280;62867;52.038;29.256;2022-10-22T05:58:45;1024.9;;;6.2;65.1
74435;BME280;62867;52.038;29.256;2022-10-22T06:04:00;1024.9;;;6.3;65.1
74435;BME280;62867;52.038;29.256;2022-10-22T06:08:55;1024.9;;;6.4;64.9
74435;BME280;62867;52.038;29.256;2022-10-22T06:14:05;1024.9;;;6.6;64.2
74435;BME280;62867;52.038;29.256;2022-10-22T06:19:05;1024.9;;;6.8;63.9
74435;BME280;62867;52.038;29.256;2022-10-22T06:24:19;1024.9;;;6.9;63.6
74435;BME280;62867;52.038;29.256;2022-10-22T06:29:21;1024.8;;;7;63.7
74435;BME280;62867;52.038;29.256;2022-10-22T06:33:59;1024.7;;;7.1;63.9
74435;BME280;62867;52.038;29.256;2022-10-22T06:39:27;1024.7;;;7.2;63.4
74435;BME280;62867;52.038;29.256;2022-10-22T06:44:18;1024.7;;;7.2;63.9
74435;BME280;62867;52.038;29.256;2022-10-22T06:48:47;1024.6;;;7.3;63
74435;BME280;62867;52.038;29.256;2022-10-22T06:53:59;1024.5;;;7.3;62.4
74435;BME280;62867;52.038;29.256;2022-10-22T06:58:46;1024.5;;;7.3;62.2
74435;BME280;62867;52.038;29.256;2022-10-22T07:04:31;1024.4;;;7.4;62.1
74435;BME280;62867;52.038;29.256;2022-10-22T07:09:17;1024.4;;;7.4;61.7
74435;BME280;62867;52.038;29.256;2022-10-22T07:14:31;1024.3;;;7.4;62.1
74435;BME280;62867;52.038;29.256;2022-10-22T07:19:21;1024.2;;;7.4;61.9
74435;BME280;62867;52.038;29.256;2022-10-22T07:24:21;1024.1;;;7.4;62
74435;BME280;62867;52.038;29.256;2022-10-22T07:28:51;1024;;;7.4;62.4
74435;BME280;62867;52.038;29.256;2022-10-22T07:34:15;1024.5;;;7.6;62.6
74435;BME280;62867;52.038;29.256;2022-10-22T07:38:45;1024.5;;;7.7;62.2
74435;BME280;62867;52.038;29.256;2022-10-22T07:44:09;1024.5;;;7.9;61.6
74435;BME280;62867;52.038;29.256;2022-10-22T07:48:59;1024.5;;;8;60.6
74435;BME280;62867;52.038;29.256;2022-10-22T07:54:29;1024.5;;;8.1;60.6
74435;BME280;62867;52.038;29.256;2022-10-22T07:59:31;1024.6;;;8.2;59.5
74435;BME280;62867;52.038;29.256;2022-10-22T08:03:45;1024.7;;;8.1;58.9
74435;BME280;62867;52.038;29.256;2022-10-22T08:09:09;1024.7;;;8.1;59.1
74435;BME280;62867;52.038;29.256;2022-10-22T08:14:27;1024.8;;;8.1;60.3
74435;BME280;62867;52.038;29.256;2022-10-22T08:19:27;1024.7;;;8;61.8
74435;BME280;62867;52.038;29.256;2022-10-22T08:24:07;1024.6;;;8;62.9
74435;BME280;62867;52.038;29.256;2022-10-22T08:28:45;1024.5;;;7.9;63.8
74435;BME280;62867;52.038;29.256;2022-10-22T08:33:45;1024.5;;;7.8;64.4
74435;BME280;62867;52.038;29.256;2022-10-22T08:38:45;1024.5;;;7.8;64.7
74435;BME280;62867;52.038;29.256;2022-10-22T08:44:04;1024.5;;;7.7;65.8
74435;BME280;62867;52.038;29.256;2022-10-22T08:48:45;1024.5;;;7.6;66.5
74435;BME280;62867;52.038;29.256;2022-10-22T08:54:31;1024.4;;;7.5;66.8
74435;BME280;62867;52.038;29.256;2022-10-22T08:59:19;1024.4;;;7.5;67
74435;BME280;62867;52.038;29.256;2022-10-22T09:04:09;1024.3;;;7.5;67.2
74435;BME280;62867;52.038;29.256;2022-10-22T09:09:26;1024.3;;;7.5;67.8
74435;BME280;62867;52.038;29.256;2022-10-22T09:14:10;1024.1;;;7.6;68.4
74435;BME280;62867;52.038;29.256;2022-10-22T09:19:03;1024;;;7.8;67.7
74435;BME280;62867;52.038;29.256;2022-10-22T09:23:49;1023.8;;;7.9;67.5
74435;BME280;62867;52.038;29.256;2022-10-22T09:29:28;1023.7;;;7.9;67.7
74435;BME280;62867;52.038;29.256;2022-10-22T09:34:27;1023.7;;;8;67.9
74435;BME280;62867;52.038;29.256;2022-10-22T09:39:21;1024.1;;;8.1;67.9
74435;BME280;62867;52.038;29.256;2022-10-22T09:44:31;1024.3;;;8.2;67.7
74435;BME280;62867;52.038;29.256;2022-10-22T09:49:19;1024.3;;;8.3;67.9
74435;BME280;62867;52.038;29.256;2022-10-22T09:54:14;1024.4;;;8.4;68.5
74435;BME280;62867;52.038;29.256;2022-10-22T09:59:11;1024.5;;;8.4;67.8
74435;BME280;62867;52.038;29.256;2022-10-22T10:04:15;1024.4;;;8.4;67.4
74435;BME280;62867;52.038;29.256;2022-10-22T10:08:57;1024.4;;;8.4;68.3
74435;BME280;62867;52.038;29.256;2022-10-22T10:14:04;1024.4;;;8.4;68.2
74435;BME280;62867;52.038;29.256;2022-10-22T10:18:50;1024.4;;;8.4;68.2
74435;BME280;62867;52.038;29.256;2022-10-22T10:23:45;1024.3;;;8.5;68.4
74435;BME280;62867;52.038;29.256;2022-10-22T10:29:22;1024.2;;;8.5;68.4
74435;BME280;62867;52.038;29.256;2022-10-22T10:34:22;1024.3;;;8.5;68
74435;BME280;62867;52.038;29.256;2022-10-22T10:39:00;1024.5;;;8.6;68.3
74435;BME280;62867;52.038;29.256;2022-10-22T10:43:49;1024.5;;;8.6;67.9
74435;BME280;62867;52.038;29.256;2022-10-22T10:49:29;1024.4;;;8.7;68.7
74435;BME280;62867;52.038;29.256;2022-10-22T10:54:30;1024.4;;;8.9;68.7
74435;BME280;62867;52.038;29.256;2022-10-22T10:59:11;1024.3;;;9.1;67.6
74435;BME280;62867;52.038;29.256;2022-10-22T11:04:11;1024.2;;;9.1;67.8
74435;BME280;62867;52.038;29.256;2022-10-22T11:08:58;1024.1;;;9.2;66.9
74435;BME280;62867;52.038;29.256;2022-10-22T11:14:16;1024;;;9.2;67.8
74435;BME280;62867;52.038;29.256;2022-10-22T11:19:08;1023.9;;;9.1;67.3
74435;BME280;62867;52.038;29.256;2022-10-22T11:24:09;1023.7;;;9.1;67.6
74435;BME280;62867;52.038;29.256;2022-10-22T11:29:19;1023.7;;;9.1;67.8
74435;BME280;62867;52.038;29.256;2022-10-22T11:34:29;1023.7;;;9.2;67.1
74435;BME280;62867;52.038;29.256;2022-10-22T11:39:01;1023.5;;;9.4;67.9
74435;BME280;62867;52.038;29.256;2022-10-22T11:44:27;1023.4;;;9.5;67.3
74435;BME280;62867;52.038;29.256;2022-10-22T11:49:40;1023.4;;;9.7;67.5
74435;BME280;62867;52.038;29.256;2022-10-22T11:54:00;1023.4;;;9.6;66.9
74435;BME280;62867;52.038;29.256;2022-10-22T11:59:38;1023.3;;;9.5;66.2
74435;BME280;62867;52.038;29.256;2022-10-22T12:04:21;1023.3;;;9.4;66.9
74435;BME280;62867;52.038;29.256;2022-10-22T12:09:28;1023.3;;;9.4;67.8
74435;BME280;62867;52.038;29.256;2022-10-22T12:14:17;1023.3;;;9.4;68.5
74435;BME280;62867;52.038;29.256;2022-10-22T12:19:25;1023.3;;;9.4;68.4
74435;BME280;62867;52.038;29.256;2022-10-22T12:24:13;1023.3;;;9.3;69
74435;BME280;62867;52.038;29.256;2022-10-22T12:28:45;1023.3;;;9.3;68.3
74435;BME280;62867;52.038;29.256;2022-10-22T12:33:45;1023.2;;;9.2;68.4
74435;BME280;62867;52.038;29.256;2022-10-22T12:39:16;1023.2;;;9.2;69.7
74435;BME280;62867;52.038;29.256;2022-10-22T12:43:59;1023.1;;;9.2;69.7
74435;BME280;62867;52.038;29.256;2022-10-22T12:48:45;1023;;;9.2;69.7
74435;BME280;62867;52.038;29.256;2022-10-22T12:54:08;1023;;;9.3;69
74435;BME280;62867;52.038;29.256;2022-10-22T12:59:31;1022.9;;;9.3;69.3
74435;BME280;62867;52.038;29.256;2022-10-22T13:04:29;1022.9;;;9.4;68.9
74435;BME280;62867;52.038;29.256;2022-10-22T13:08:54;1023;;;9.4;69
74435;BME280;62867;52.038;29.256;2022-10-22T13:14:15;1023.1;;;9.3;68
74435;BME280;62867;52.038;29.256;2022-10-22T13:19:34;1023.1;;;9.3;67.7
74435;BME280;62867;52.038;29.256;2022-10-22T13:24:29;1023;;;9.2;67.9
74435;BME280;62867;52.038;29.256;2022-10-22T13:28:52;1023;;;9.2;68.2
74435;BME280;62867;52.038;29.256;2022-10-22T13:33:59;1023;;;9.2;68.5
74435;BME280;62867;52.038;29.256;2022-10-22T13:38:45;1023;;;9.2;68.6
74435;BME280;62867;52.038;29.256;2022-10-22T13:44:15;1023;;;9.1;68
74435;BME280;62867;52.038;29.256;2022-10-22T13:49:09;1022.9;;;9;68.8
74435;BME280;62867;52.038;29.256;2022-10-22T13:53:45;1022.9;;;8.9;69
74435;BME280;62867;52.038;29.256;2022-10-22T13:59:01;1022.8;;;8.9;69.2
74435;BME280;62867;52.038;29.256;2022-10-22T14:04:29;1022.7;;;8.9;69
74435;BME280;62867;52.038;29.256;2022-10-22T14:09:14;1022.6;;;8.9;69.5
74435;BME280;62867;52.038;29.256;2022-10-22T14:14:29;1022.6;;;8.9;69.1
74435;BME280;62867;52.038;29.256;2022-10-22T14:19:27;1022.4;;;8.9;69.9
74435;BME280;62867;52.038;29.256;2022-10-22T14:23:46;1022.4;;;8.9;69.6
74435;BME280;62867;52.038;29.256;2022-10-22T14:29:21;1022.4;;;8.9;68.7
74435;BME280;62867;52.038;29.256;2022-10-22T14:34:10;1022.5;;;8.8;68.6
74435;BME280;62867;52.038;29.256;2022-10-22T14:39:25;1022.5;;;8.7;69.8
74435;BME280;62867;52.038;29.256;2022-10-22T14:44:15;1022.5;;;8.7;69.4
74435;BME280;62867;52.038;29.256;2022-10-22T14:49:21;1022.5;;;8.7;69.3
74435;BME280;62867;52.038;29.256;2022-10-22T14:54:23;1022.5;;;8.7;69.9
74435;BME280;62867;52.038;29.256;2022-10-22T14:58:49;1022.4;;;8.8;69.4
74435;BME280;62867;52.038;29.256;2022-10-22T15:04:05;1022.4;;;8.8;69.2
74435;BME280;62867;52.038;29.256;2022-10-22T15:09:15;1022.4;;;8.8;69.7
74435;BME280;62867;52.038;29.256;2022-10-22T15:14:19;1022.4;;;8.8;69.7
74435;BME280;62867;52.038;29.256;2022-10-22T15:18:45;1022.5;;;8.8;69.6
74435;BME280;62867;52.038;29.256;2022-10-22T15:23:59;1022.5;;;8.8;69.3
74435;BME280;62867;52.038;29.256;2022-10-22T15:29:29;1022.5;;;8.7;69.7
74435;BME280;62867;52.038;29.256;2022-10-22T15:34:28;1022.4;;;8.7;69.6
74435;BME280;62867;52.038;29.256;2022-10-22T15:38:59;1022.3;;;8.7;69.6
74435;BME280;62867;52.038;29.256;2022-10-22T15:43:45;1022.3;;;8.7;69.2
74435;BME280;62867;52.038;29.256;2022-10-22T15:49:27;1022.3;;;8.7;69.2
74435;BME280;62867;52.038;29.256;2022-10-22T15:54:29;1022.3;;;8.7;69.7
74435;BME280;62867;52.038;29.256;2022-10-22T15:59:08;1022.3;;;8.8;68.7
74435;BME280;62867;52.038;29.256;2022-10-22T16:04:01;1022.2;;;8.8;69.8
74435;BME280;62867;52.038;29.256;2022-10-22T16:09:02;1022.2;;;8.8;69.3
74435;BME280;62867;52.038;29.256;2022-10-22T16:13:59;1022.2;;;8.8;69.5
74435;BME280;62867;52.038;29.256;2022-10-22T16:19:09;1022.2;;;8.9;69.3
74435;BME280;62867;52.038;29.256;2022-10-22T16:24:08;1022.2;;;8.9;68.6
74435;BME280;62867;52.038;29.256;2022-10-22T16:29:21;1022.2;;;8.9;68.4
74435;BME280;62867;52.038;29.256;2022-10-22T16:33:47;1022.2;;;8.9;68.5
74435;BME280;62867;52.038;29.256;2022-10-22T16:38:55;1022.1;;;8.9;68.9
74435;BME280;62867;52.038;29.256;2022-10-22T16:44:29;1022;;;8.9;68.5
74435;BME280;62867;52.038;29.256;2022-10-22T16:49:21;1022.1;;;8.9;68.1
74435;BME280;62867;52.038;29.256;2022-10-22T16:54:01;1022.2;;;8.9;68.5
74435;BME280;62867;52.038;29.256;2022-10-22T16:58:46;1022.1;;;8.9;68.8
74435;BME280;62867;52.038;29.256;2022-10-22T17:03:57;1022;;;9;68.8
74435;BME280;62867;52.038;29.256;2022-10-22T17:09:29;1022;;;9;68.2
74435;BME280;62867;52.038;29.256;2022-10-22T17:14:17;1021.9;;;9.1;69
74435;BME280;62867;52.038;29.256;2022-10-22T17:19:31;1021.9;;;9.1;68.9
74435;BME280;62867;52.038;29.256;2022-10-22T17:24:23;1021.9;;;9;68.5
74435;BME280;62867;52.038;29.256;2022-10-22T17:29:19;1021.9;;;9.1;68.3
74435;BME280;62867;52.038;29.256;2022-10-22T17:34:31;1021.9;;;9.1;67.9
74435;BME280;62867;52.038;29.256;2022-10-22T17:39:17;1022;;;9;67.8
74435;BME280;62867;52.038;29.256;2022-10-22T17:43:45;1022;;;9;68.3
74435;BME280;62867;52.038;29.256;2022-10-22T17:49:17;1021.8;;;9.1;68.8
74435;BME280;62867;52.038;29.256;2022-10-22T17:53:59;1021.7;;;9.1;68.8
74435;BME280;62867;52.038;29.256;2022-10-22T17:59:31;1021.7;;;9.2;69
74435;BME280;62867;52.038;29.256;2022-10-22T18:04:28;1021.6;;;9.2;68.3
74435;BME280;62867;52.038;29.256;2022-10-22T18:09:10;1021.5;;;9.2;67.7
74435;BME280;62867;52.038;29.256;2022-10-22T18:13:59;1021.4;;;9.2;67.4
74435;BME280;62867;52.038;29.256;2022-10-22T18:19:31;1021.3;;;9.2;68.1
74435;BME280;62867;52.038;29.256;2022-10-22T18:24:31;1021.3;;;9.1;68.6
74435;BME280;62867;52.038;29.256;2022-10-22T18:28:59;1021.3;;;9.2;68.3
74435;BME280;62867;52.038;29.256;2022-10-22T18:33:45;1021.2;;;9.2;68.6
74435;BME280;62867;52.038;29.256;2022-10-22T18:38:58;1021.1;;;9.2;67.7
74435;BME280;62867;52.038;29.256;2022-10-22T18:43:48;1021;;;9.2;67.7
74435;BME280;62867;52.038;29.256;2022-10-22T18:48:54;1021;;;9.2;68.2
74435;BME280;62867;52.038;29.256;2022-10-22T18:54:09;1020.9;;;9.2;67.7
74435;BME280;62867;52.038;29.256;2022-10-22T18:59:22;1020.9;;;9.2;68.1
74435;BME280;62867;52.038;29.256;2022-10-22T19:03:57;1020.8;;;9.2;67.4
74435;BME280;62867;52.038;29.256;2022-10-22T19:08:46;1020.8;;;9.2;68
74435;BME280;62867;52.038;29.256;2022-10-22T19:14:27;1020.8;;;9.2;69
74435;BME280;62867;52.038;29.256;2022-10-22T19:19:21;1020.8;;;9.2;68.1
74435;BME280;62867;52.038;29.256;2022-10-22T19:23:59;1020.8;;;9.2;68
74435;BME280;62867;52.038;29.256;2022-10-22T19:29:09;1020.7;;;9.3;68.8
74435;BME280;62867;52.038;29.256;2022-10-22T19:33:45;1020.7;;;9.3;69.6
74435;BME280;62867;52.038;29.256;2022-10-22T19:39:29;1020.7;;;9.4;70
74435;BME280;62867;52.038;29.256;2022-10-22T19:44:15;1020.6;;;9.4;68.7
74435;BME280;62867;52.038;29.256;2022-10-22T19:49:29;1020.6;;;9.4;69.6
74435;BME280;62867;52.038;29.256;2022-10-22T19:54:12;1020.5;;;9.4;70.1
74435;BME280;62867;52.038;29.256;2022-10-22T19:59:23;1020.5;;;9.5;68.9
74435;BME280;62867;52.038;29.256;2022-10-22T20:04:08;1020.5;;;9.5;69.5
74435;BME280;62867;52.038;29.256;2022-10-22T20:08:59;1020.5;;;9.6;69.7
74435;BME280;62867;52.038;29.256;2022-10-22T20:14:31;1020.4;;;9.6;69.5
74435;BME280;62867;52.038;29.256;2022-10-22T20:19:00;1020.4;;;9.6;68.5
74435;BME280;62867;52.038;29.256;2022-10-22T20:23:46;1020.4;;;9.7;69.2
74435;BME280;62867;52.038;29.256;2022-10-22T20:29:13;1020.3;;;9.7;69.6
74435;BME280;62867;52.038;29.256;2022-10-22T20:34:31;1020.3;;;9.7;69
74435;BME280;62867;52.038;29.256;2022-10-22T20:39:19;1020.3;;;9.7;69.6
74435;BME280;62867;52.038;29.256;2022-10-22T20:44:10;1020.2;;;9.7;69.8
74435;BME280;62867;52.038;29.256;2022-10-22T20:49:10;1020.2;;;9.7;68.6
74435;BME280;62867;52.038;29.256;2022-10-22T20:54:29;1020.1;;;9.7;68.3
74435;BME280;62867;52.038;29.256;2022-10-22T20:59:30;1020.1;;;9.8;67.4
74435;BME280;62867;52.038;29.256;2022-10-22T21:04:07;1020.1;;;9.8;68
74435;BME280;62867;52.038;29.256;2022-10-22T21:08:53;1020.1;;;9.8;68.1
74435;BME280;62867;52.038;29.256;2022-10-22T21:14:14;1020;;;9.8;68.7
74435;BME280;62867;52.038;29.256;2022-10-22T21:19:18;1019.9;;;9.9;69.2
74435;BME280;62867;52.038;29.256;2022-10-22T21:24:08;1019.8;;;9.9;69.8
74435;BME280;62867;52.038;29.256;2022-10-22T21:29:01;1019.8;;;9.9;69.5
74435;BME280;62867;52.038;29.256;2022-10-22T21:34:21;1019.8;;;9.9;69.8
74435;BME280;62867;52.038;29.256;2022-10-22T21:39:21;1019.7;;;9.9;69.7
74435;BME280;62867;52.038;29.256;2022-10-22T21:44:15;1019.6;;;9.9;69.9
74435;BME280;62867;52.038;29.256;2022-10-22T21:49:31;1019.5;;;9.9;69.3
74435;BME280;62867;52.038;29.256;2022-10-22T21:54:23;1019.5;;;9.9;68.6
74435;BME280;62867;52.038;29.256;2022-10-22T21:58:45;1019.5;;;9.9;68.9
74435;BME280;62867;52.038;29.256;2022-10-22T22:03:59;1019.4;;;9.9;68.6
74435;BME280;62867;52.038;29.256;2022-10-22T22:09:21;1019.3;;;9.9;68.3
74435;BME280;62867;52.038;29.256;2022-10-22T22:14:29;1019.3;;;9.9;67.9
74435;BME280;62867;52.038;29.256;2022-10-22T22:19:15;1019.3;;;9.9;68.4
74435;BME280;62867;52.038;29.256;2022-10-22T22:24:21;1019.2;;;9.9;68.2
74435;BME280;62867;52.038;29.256;2022-10-22T22:29:03;1019.2;;;9.9;68.9
74435;BME280;62867;52.038;29.256;2022-10-22T22:33:56;1019.2;;;9.9;69.5
74435;BME280;62867;52.038;29.256;2022-10-22T22:38:52;1019.2;;;9.9;70.1
74435;BME280;62867;52.038;29.256;2022-10-22T22:44:15;1019.2;;;9.8;70.2
74435;BME280;62867;52.038;29.256;2022-10-22T22:48:55;1019.2;;;9.8;70.1
74435;BME280;62867;52.038;29.256;2022-10-22T22:53:51;1019.1;;;9.8;70.3
74435;BME280;62867;52.038;29.256;2022-10-22T22:58:53;1019;;;9.8;71.1
74435;BME280;62867;52.038;29.256;2022-10-22T23:04:29;1019;;;9.9;70.9
74435;BME280;62867;52.038;29.256;2022-10-22T23:09:19;1019;;;9.9;71.2
74435;BME280;62867;52.038;29.256;2022-10-22T23:14:10;1019;;;9.8;71
74435;BME280;62867;52.038;29.256;2022-10-22T23:18:46;1019;;;9.8;71.5
74435;BME280;62867;52.038;29.256;2022-10-22T23:24:24;1019;;;9.9;71.3
74435;BME280;62867;52.038;29.256;2022-10-22T23:28:53;1018.9;;;9.8;71.5
74435;BME280;62867;52.038;29.256;2022-10-22T23:34:06;1018.9;;;9.8;71.8
74435;BME280;62867;52.038;29.256;2022-10-22T23:39:16;1018.9;;;9.8;71.8
74435;BME280;62867;52.038;29.256;2022-10-22T23:43:59;1018.8;;;9.8;72.1
74435;BME280;62867;52.038;29.256;2022-10-22T23:49:16;1018.8;;;9.8;72.6
74435;BME280;62867;52.038;29.256;2022-10-22T23:54:06;1018.7;;;9.8;72.8
74435;BME280;62867;52.038;29.256;2022-10-22T23:59:06;1018.7;;;9.8;72.8
